PWSweather.com
Personal Weather Stations
Station Observations
KNCCHINA3
Red Tractor Trail, China Grove, NC 28023

Red Tractor TrailChina Grove, NC 28023

Lat: 35.59751, Lon: -80.60201

Elevation: 800

Station Type: Oregon Scientific WMR 968

http://www.joesweathergarage.com

High Low Average
Temperature 82.7°F28.2°C 47.0°F8.3°C 63.4°F17.4°C
Dew Point 58.5°F14.7°C 43.4°F6.3°C 51.8°F11.0°C
Winds 13.0 mph 20.9 kmh Calm Calm 6.0 mph SE9.7 kmh SE
Wind Gusts 19.6 mph31.5 kmh -- 9.0 mph14.5 kmh
Humidity 92% 40% 68%
Pressure 30.09 in1019.0 mb 29.83 in1010.2 mb -
Precipitation 0.00 in0.0 mm - -
Hour Temp Dew Point Humidity Winds Wind Gusts Pressure Precip Precip Rate Daily Precip Total
12:01 AM 60.8°F16.0°C 48.7°F9.3°C 64% 5.4 mph ESE8.7 kmh ESE 8.6 mph13.8 kmh 30.00 in1015.9 mb 0.00 in0.0 mm 0.00 in0.0 mm 0.00 in0.0 mm
12:06 AM 60.4°F15.8°C 48.7°F9.3°C 65% 4.8 mph E7.7 kmh E 7.2 mph11.6 kmh 30.00 in1015.9 mb 0.00 in0.0 mm 0.00 in0.0 mm 0.00 in0.0 mm
12:11 AM 60.2°F15.7°C 48.5°F9.2°C 65% 6.3 mph E10.1 kmh E 9.4 mph15.1 kmh 30.00 in1015.9 mb 0.00 in0.0 mm 0.00 in0.0 mm 0.00 in0.0 mm
12:16 AM 60.1°F15.6°C 48.4°F9.1°C 65% 3.2 mph ENE5.1 kmh ENE 9.4 mph15.1 kmh 30.00 in1015.9 mb 0.00 in0.0 mm 0.00 in0.0 mm 0.00 in0.0 mm
12:21 AM 59.9°F15.5°C 48.6°F9.2°C 66% 3.2 mph E5.1 kmh E 9.4 mph15.1 kmh 30.00 in1015.9 mb 0.00 in0.0 mm 0.00 in0.0 mm 0.00 in0.0 mm
12:26 AM 59.8°F15.4°C 48.8°F9.3°C 67% 5.2 mph ESE8.4 kmh ESE 5.8 mph9.3 kmh 30.00 in1015.9 mb 0.00 in0.0 mm 0.00 in0.0 mm 0.00 in0.0 mm
12:32 AM 59.4°F15.2°C 48.1°F8.9°C 66% 5.0 mph ESE8.0 kmh ESE 11.6 mph18.7 kmh 30.00 in1015.9 mb 0.00 in0.0 mm 0.00 in0.0 mm 0.00 in0.0 mm
12:37 AM 59.3°F15.2°C 48.4°F9.1°C 67% 3.4 mph E5.5 kmh E 11.6 mph18.7 kmh 30.00 in1015.9 mb 0.00 in0.0 mm 0.00 in0.0 mm 0.00 in0.0 mm
12:42 AM 59.1°F15.1°C 48.6°F9.2°C 68% 7.9 mph E12.7 kmh E 10.8 mph17.4 kmh 30.00 in1015.9 mb 0.00 in0.0 mm 0.00 in0.0 mm 0.00 in0.0 mm
12:47 AM 58.9°F14.9°C 48.0°F8.9°C 67% 10.8 mph ESE17.4 kmh ESE 10.8 mph17.4 kmh 30.00 in1015.9 mb 0.00 in0.0 mm 0.00 in0.0 mm 0.00 in0.0 mm
12:52 AM 58.7°F14.8°C 48.2°F9.0°C 68% 7.3 mph E11.7 kmh E 10.8 mph17.4 kmh 30.00 in1015.9 mb 0.00 in0.0 mm 0.00 in0.0 mm 0.00 in0.0 mm
12:57 AM 58.4°F14.7°C 47.9°F8.8°C 68% 5.1 mph ENE8.2 kmh ENE 10.8 mph17.4 kmh 30.00 in1015.9 mb 0.00 in0.0 mm 0.00 in0.0 mm 0.00 in0.0 mm
01:03 AM 58.2°F14.6°C 47.7°F8.7°C 68% 5.4 mph ENE8.7 kmh ENE 5.4 mph8.7 kmh 30.00 in1015.9 mb 0.00 in0.0 mm 0.00 in0.0 mm 0.00 in0.0 mm
01:08 AM 58.0°F14.4°C 47.9°F8.8°C 69% 5.0 mph ESE8.0 kmh ESE 5.4 mph8.7 kmh 30.00 in1015.9 mb 0.00 in0.0 mm 0.00 in0.0 mm 0.00 in0.0 mm
01:13 AM 57.8°F14.3°C 47.7°F8.7°C 69% 5.0 mph ENE8.0 kmh ENE 5.4 mph8.7 kmh 30.00 in1015.9 mb 0.00 in0.0 mm 0.00 in0.0 mm 0.00 in0.0 mm
01:18 AM 57.6°F14.2°C 47.9°F8.8°C 70% 5.4 mph ENE8.7 kmh ENE 5.4 mph8.7 kmh 30.00 in1015.9 mb 0.00 in0.0 mm 0.00 in0.0 mm 0.00 in0.0 mm
01:23 AM 57.5°F14.2°C 47.8°F8.8°C 70% 5.1 mph NE8.2 kmh NE 6.2 mph10.0 kmh 30.00 in1015.9 mb 0.00 in0.0 mm 0.00 in0.0 mm 0.00 in0.0 mm
01:28 AM 57.5°F14.2°C 47.8°F8.8°C 70% 5.3 mph NE8.5 kmh NE 6.2 mph10.0 kmh 30.00 in1015.9 mb 0.00 in0.0 mm 0.00 in0.0 mm 0.00 in0.0 mm
01:33 AM 57.3°F14.1°C 48.0°F8.9°C 71% 4.9 mph ENE7.9 kmh ENE 6.2 mph10.0 kmh 30.00 in1015.9 mb 0.00 in0.0 mm 0.00 in0.0 mm 0.00 in0.0 mm
01:38 AM 57.1°F13.9°C 47.8°F8.8°C 71% 4.2 mph ENE6.8 kmh ENE 5.4 mph8.7 kmh 30.00 in1015.9 mb 0.00 in0.0 mm 0.00 in0.0 mm 0.00 in0.0 mm
01:43 AM 57.1°F13.9°C 48.2°F9.0°C 72% 6.8 mph ENE10.9 kmh ENE 6.8 mph10.9 kmh 30.00 in1015.9 mb 0.00 in0.0 mm 0.00 in0.0 mm 0.00 in0.0 mm
01:48 AM 57.1°F13.9°C 48.2°F9.0°C 72% 5.9 mph ENE9.5 kmh ENE 6.8 mph10.9 kmh 30.00 in1015.9 mb 0.00 in0.0 mm 0.00 in0.0 mm 0.00 in0.0 mm
01:53 AM 57.1°F13.9°C 48.2°F9.0°C 72% 5.4 mph NNE8.7 kmh NNE 6.8 mph10.9 kmh 30.00 in1015.9 mb 0.00 in0.0 mm 0.00 in0.0 mm 0.00 in0.0 mm
01:58 AM 56.9°F13.8°C 48.0°F8.9°C 72% 5.0 mph E8.0 kmh E 5.4 mph8.7 kmh 30.00 in1015.9 mb 0.00 in0.0 mm 0.00 in0.0 mm 0.00 in0.0 mm
02:04 AM 56.6°F13.7°C 47.7°F8.7°C 72% 6.5 mph NE10.5 kmh NE 7.2 mph11.6 kmh 30.00 in1015.9 mb 0.00 in0.0 mm 0.00 in0.0 mm 0.00 in0.0 mm
02:09 AM 56.6°F13.7°C 48.0°F8.9°C 73% 7.2 mph NNE11.6 kmh NNE 7.2 mph11.6 kmh 30.00 in1015.9 mb 0.00 in0.0 mm 0.00 in0.0 mm 0.00 in0.0 mm
02:14 AM 56.2°F13.4°C 47.7°F8.7°C 73% 6.8 mph ENE10.9 kmh ENE 7.2 mph11.6 kmh 30.00 in1015.9 mb 0.00 in0.0 mm 0.00 in0.0 mm 0.00 in0.0 mm
02:19 AM 56.2°F13.4°C 48.0°F8.9°C 74% 8.0 mph ENE12.9 kmh ENE 11.6 mph18.7 kmh 30.00 in1015.9 mb 0.00 in0.0 mm 0.00 in0.0 mm 0.00 in0.0 mm
02:24 AM 56.0°F13.3°C 47.8°F8.8°C 74% 8.0 mph ENE12.9 kmh ENE 11.6 mph18.7 kmh 30.00 in1015.9 mb 0.00 in0.0 mm 0.00 in0.0 mm 0.00 in0.0 mm
02:29 AM 55.8°F13.2°C 47.6°F8.7°C 74% 7.6 mph NNW12.2 kmh NNW 8.6 mph13.8 kmh 30.00 in1015.9 mb 0.00 in0.0 mm 0.00 in0.0 mm 0.00 in0.0 mm
02:35 AM 55.5°F13.1°C 47.3°F8.5°C 74% 4.8 mph NE7.7 kmh NE 8.6 mph13.8 kmh 30.00 in1015.9 mb 0.00 in0.0 mm 0.00 in0.0 mm 0.00 in0.0 mm
02:40 AM 55.5°F13.1°C 48.0°F8.9°C 76% 6.8 mph ENE10.9 kmh ENE 6.8 mph10.9 kmh 30.00 in1015.9 mb 0.00 in0.0 mm 0.00 in0.0 mm 0.00 in0.0 mm
02:45 AM 55.1°F12.8°C 48.0°F8.9°C 77% 6.8 mph ENE10.9 kmh ENE 6.8 mph10.9 kmh 30.00 in1015.9 mb 0.00 in0.0 mm 0.00 in0.0 mm 0.00 in0.0 mm
02:50 AM 54.9°F12.7°C 47.5°F8.6°C 76% 5.8 mph ENE9.3 kmh ENE 10.8 mph17.4 kmh 30.00 in1015.9 mb 0.00 in0.0 mm 0.00 in0.0 mm 0.00 in0.0 mm
02:57 AM 54.8°F12.7°C 47.7°F8.7°C 77% 6.4 mph E10.3 kmh E 10.8 mph17.4 kmh 30.00 in1015.9 mb 0.00 in0.0 mm 0.00 in0.0 mm 0.00 in0.0 mm
03:02 AM 54.6°F12.6°C 47.5°F8.6°C 77% 5.4 mph NNE8.7 kmh NNE 9.4 mph15.1 kmh 30.00 in1015.9 mb 0.00 in0.0 mm 0.00 in0.0 mm 0.00 in0.0 mm
03:08 AM 54.4°F12.4°C 47.6°F8.7°C 78% 12.6 mph NE20.3 kmh NE 12.6 mph20.3 kmh 30.00 in1015.9 mb 0.00 in0.0 mm 0.00 in0.0 mm 0.00 in0.0 mm
03:13 AM 54.2°F12.3°C 47.5°F8.6°C 78% 10.1 mph ESE16.3 kmh ESE 12.6 mph20.3 kmh 30.00 in1015.9 mb 0.00 in0.0 mm 0.00 in0.0 mm 0.00 in0.0 mm
03:18 AM 54.2°F12.3°C 47.5°F8.6°C 78% 7.2 mph NE11.6 kmh NE 12.6 mph20.3 kmh 30.00 in1015.9 mb 0.00 in0.0 mm 0.00 in0.0 mm 0.00 in0.0 mm
03:23 AM 54.0°F12.2°C 47.3°F8.5°C 78% 7.9 mph NE12.7 kmh NE 11.2 mph18.0 kmh 30.00 in1015.9 mb 0.00 in0.0 mm 0.00 in0.0 mm 0.00 in0.0 mm
03:28 AM 53.9°F12.2°C 47.2°F8.4°C 78% 7.8 mph NE12.6 kmh NE 8.0 mph12.9 kmh 30.00 in1015.9 mb 0.00 in0.0 mm 0.00 in0.0 mm 0.00 in0.0 mm
03:33 AM 53.7°F12.1°C 47.0°F8.3°C 78% 8.0 mph E12.9 kmh E 8.0 mph12.9 kmh 30.00 in1015.9 mb 0.00 in0.0 mm 0.00 in0.0 mm 0.00 in0.0 mm
03:38 AM 53.5°F11.9°C 46.8°F8.2°C 78% 6.9 mph NNE11.1 kmh NNE 9.4 mph15.1 kmh 30.00 in1015.9 mb 0.00 in0.0 mm 0.00 in0.0 mm 0.00 in0.0 mm
03:43 AM 53.5°F11.9°C 46.8°F8.2°C 78% 7.3 mph NE11.7 kmh NE 9.4 mph15.1 kmh 30.00 in1015.9 mb 0.00 in0.0 mm 0.00 in0.0 mm 0.00 in0.0 mm
03:48 AM 53.3°F11.8°C 46.9°F8.3°C 79% 5.4 mph ENE8.7 kmh ENE 9.4 mph15.1 kmh 30.00 in1015.9 mb 0.00 in0.0 mm 0.00 in0.0 mm 0.00 in0.0 mm
03:53 AM 53.1°F11.7°C 47.0°F8.3°C 80% 5.4 mph ENE8.7 kmh ENE 9.4 mph15.1 kmh 30.03 in1016.9 mb 0.00 in0.0 mm 0.00 in0.0 mm 0.00 in0.0 mm
03:58 AM 53.0°F11.7°C 46.6°F8.1°C 79% 5.4 mph ENE8.7 kmh ENE 5.4 mph8.7 kmh 30.03 in1016.9 mb 0.00 in0.0 mm 0.00 in0.0 mm 0.00 in0.0 mm
04:03 AM 52.8°F11.6°C 46.7°F8.2°C 80% 6.8 mph ENE10.9 kmh ENE 6.8 mph10.9 kmh 30.03 in1016.9 mb 0.00 in0.0 mm 0.00 in0.0 mm 0.00 in0.0 mm
04:08 AM 52.4°F11.3°C 46.4°F8.0°C 80% 7.0 mph ENE11.3 kmh ENE 7.6 mph12.2 kmh 30.00 in1015.9 mb 0.00 in0.0 mm 0.00 in0.0 mm 0.00 in0.0 mm
04:13 AM 52.4°F11.3°C 46.7°F8.2°C 81% 9.9 mph E15.9 kmh E 11.2 mph18.0 kmh 30.00 in1015.9 mb 0.00 in0.0 mm 0.00 in0.0 mm 0.00 in0.0 mm
04:18 AM 52.2°F11.2°C 46.5°F8.1°C 81% 9.0 mph NE14.5 kmh NE 11.2 mph18.0 kmh 30.00 in1015.9 mb 0.00 in0.0 mm 0.00 in0.0 mm 0.00 in0.0 mm
04:23 AM 52.1°F11.2°C 46.4°F8.0°C 81% 5.8 mph NNE9.3 kmh NNE 9.0 mph14.5 kmh 30.00 in1015.9 mb 0.00 in0.0 mm 0.00 in0.0 mm 0.00 in0.0 mm
04:29 AM 52.1°F11.2°C 46.7°F8.2°C 82% 5.8 mph NNE9.3 kmh NNE 9.0 mph14.5 kmh 30.00 in1015.9 mb 0.00 in0.0 mm 0.00 in0.0 mm 0.00 in0.0 mm
04:34 AM 51.7°F10.9°C 46.3°F7.9°C 82% 5.8 mph NNE9.3 kmh NNE 5.8 mph9.3 kmh 30.00 in1015.9 mb 0.00 in0.0 mm 0.00 in0.0 mm 0.00 in0.0 mm
04:39 AM 51.5°F10.8°C 46.4°F8.0°C 83% 6.8 mph ENE10.9 kmh ENE 7.2 mph11.6 kmh 30.00 in1015.9 mb 0.00 in0.0 mm 0.00 in0.0 mm 0.00 in0.0 mm
04:44 AM 51.5°F10.8°C 46.7°F8.2°C 84% 5.5 mph ESE8.9 kmh ESE 7.2 mph11.6 kmh 30.00 in1015.9 mb 0.00 in0.0 mm 0.00 in0.0 mm 0.00 in0.0 mm
04:50 AM 51.5°F10.8°C 46.7°F8.2°C 84% 5.4 mph ESE8.7 kmh ESE 6.2 mph10.0 kmh 30.00 in1015.9 mb 0.00 in0.0 mm 0.00 in0.0 mm 0.00 in0.0 mm
04:55 AM 51.3°F10.7°C 46.2°F7.9°C 83% 3.2 mph ENE5.1 kmh ENE 5.4 mph8.7 kmh 30.00 in1015.9 mb 0.00 in0.0 mm 0.00 in0.0 mm 0.00 in0.0 mm
05:00 AM 51.0°F10.6°C 45.9°F7.7°C 83% 5.0 mph NNE8.0 kmh NNE 5.4 mph8.7 kmh 30.00 in1015.9 mb 0.00 in0.0 mm 0.00 in0.0 mm 0.00 in0.0 mm
05:05 AM 50.6°F10.3°C 45.5°F7.5°C 83% 5.4 mph ESE8.7 kmh ESE 5.4 mph8.7 kmh 30.00 in1015.9 mb 0.00 in0.0 mm 0.00 in0.0 mm 0.00 in0.0 mm
05:12 AM 50.3°F10.2°C 45.3°F7.4°C 83% 4.5 mph ENE7.2 kmh ENE 6.2 mph10.0 kmh 30.00 in1015.9 mb 0.00 in0.0 mm 0.00 in0.0 mm 0.00 in0.0 mm
05:17 AM 50.1°F10.1°C 45.4°F7.4°C 84% 3.9 mph NE6.3 kmh NE 6.8 mph10.9 kmh 30.00 in1015.9 mb 0.00 in0.0 mm 0.00 in0.0 mm 0.00 in0.0 mm
05:22 AM 49.9°F9.9°C 45.2°F7.3°C 84% 2.6 mph ENE4.2 kmh ENE 6.8 mph10.9 kmh 30.03 in1016.9 mb 0.00 in0.0 mm 0.00 in0.0 mm 0.00 in0.0 mm
05:27 AM 49.9°F9.9°C 45.5°F7.5°C 85% 8.1 mph ENE13.0 kmh ENE 11.6 mph18.7 kmh 30.03 in1016.9 mb 0.00 in0.0 mm 0.00 in0.0 mm 0.00 in0.0 mm
05:33 AM 49.7°F9.8°C 45.3°F7.4°C 85% 4.8 mph ENE7.7 kmh ENE 11.6 mph18.7 kmh 30.03 in1016.9 mb 0.00 in0.0 mm 0.00 in0.0 mm 0.00 in0.0 mm
05:38 AM 49.4°F9.7°C 45.0°F7.2°C 85% 3.5 mph NE5.6 kmh NE 7.6 mph12.2 kmh 30.03 in1016.9 mb 0.00 in0.0 mm 0.00 in0.0 mm 0.00 in0.0 mm
05:44 AM 49.4°F9.7°C 45.3°F7.4°C 86% 10.8 mph ENE17.4 kmh ENE 10.8 mph17.4 kmh 30.03 in1016.9 mb 0.00 in0.0 mm 0.00 in0.0 mm 0.00 in0.0 mm
05:49 AM 49.2°F9.6°C 45.1°F7.3°C 86% 6.2 mph NE10.0 kmh NE 10.8 mph17.4 kmh 30.03 in1016.9 mb 0.00 in0.0 mm 0.00 in0.0 mm 0.00 in0.0 mm
05:54 AM 49.2°F9.6°C 45.1°F7.3°C 86% 5.4 mph NE8.7 kmh NE 10.8 mph17.4 kmh 30.03 in1016.9 mb 0.00 in0.0 mm 0.00 in0.0 mm 0.00 in0.0 mm
05:59 AM 49.0°F9.4°C 45.2°F7.3°C 87% 7.7 mph NE12.4 kmh NE 8.0 mph12.9 kmh 30.03 in1016.9 mb 0.00 in0.0 mm 0.00 in0.0 mm 0.00 in0.0 mm
06:04 AM 49.0°F9.4°C 44.9°F7.2°C 86% 6.2 mph ENE10.0 kmh ENE 8.0 mph12.9 kmh 30.03 in1016.9 mb 0.00 in0.0 mm 0.00 in0.0 mm 0.00 in0.0 mm
06:09 AM 48.8°F9.3°C 45.0°F7.2°C 87% 5.8 mph ENE9.3 kmh ENE 8.0 mph12.9 kmh 30.03 in1016.9 mb 0.00 in0.0 mm 0.00 in0.0 mm 0.00 in0.0 mm
06:14 AM 48.6°F9.2°C 44.8°F7.1°C 87% 4.5 mph ENE7.2 kmh ENE 7.2 mph11.6 kmh 30.03 in1016.9 mb 0.00 in0.0 mm 0.00 in0.0 mm 0.00 in0.0 mm
06:19 AM 48.6°F9.2°C 44.5°F6.9°C 86% 2.2 mph ESE3.5 kmh ESE 7.2 mph11.6 kmh 30.03 in1016.9 mb 0.00 in0.0 mm 0.00 in0.0 mm 0.00 in0.0 mm
06:24 AM 48.5°F9.2°C 44.4°F6.9°C 86% 6.1 mph ENE9.8 kmh ENE 6.2 mph10.0 kmh 30.03 in1016.9 mb 0.00 in0.0 mm 0.00 in0.0 mm 0.00 in0.0 mm
06:29 AM 48.1°F8.9°C 44.0°F6.7°C 86% 4.5 mph NE7.2 kmh NE 6.2 mph10.0 kmh 30.03 in1016.9 mb 0.00 in0.0 mm 0.00 in0.0 mm 0.00 in0.0 mm
06:34 AM 47.9°F8.8°C 44.1°F6.7°C 87% 3.1 mph NE5.0 kmh NE 5.4 mph8.7 kmh 30.03 in1016.9 mb 0.00 in0.0 mm 0.00 in0.0 mm 0.00 in0.0 mm
06:39 AM 47.6°F8.7°C 43.5°F6.4°C 86% 3.0 mph NE4.8 kmh NE 5.0 mph8.0 kmh 30.03 in1016.9 mb 0.00 in0.0 mm 0.00 in0.0 mm 0.00 in0.0 mm
06:45 AM 47.4°F8.6°C 43.6°F6.4°C 87% 3.6 mph ENE5.8 kmh ENE 5.0 mph8.0 kmh 30.03 in1016.9 mb 0.00 in0.0 mm 0.00 in0.0 mm 0.00 in0.0 mm
06:50 AM 47.2°F8.4°C 43.4°F6.3°C 87% 4.1 mph NE6.6 kmh NE 5.4 mph8.7 kmh 30.03 in1016.9 mb 0.00 in0.0 mm 0.00 in0.0 mm 0.00 in0.0 mm
06:55 AM 47.0°F8.3°C 43.5°F6.4°C 88% 4.5 mph NE7.2 kmh NE 5.4 mph8.7 kmh 30.03 in1016.9 mb 0.00 in0.0 mm 0.00 in0.0 mm 0.00 in0.0 mm
07:00 AM 47.0°F8.3°C 44.1°F6.7°C 90% 5.0 mph NNE8.0 kmh NNE 5.4 mph8.7 kmh 30.03 in1016.9 mb 0.00 in0.0 mm 0.00 in0.0 mm 0.00 in0.0 mm
07:07 AM 47.0°F8.3°C 44.4°F6.9°C 91% 6.2 mph NE10.0 kmh NE 6.2 mph10.0 kmh 30.03 in1016.9 mb 0.00 in0.0 mm 0.00 in0.0 mm 0.00 in0.0 mm
07:12 AM 47.2°F8.4°C 44.6°F7.0°C 91% 5.1 mph NNE8.2 kmh NNE 6.2 mph10.0 kmh 30.03 in1016.9 mb 0.00 in0.0 mm 0.00 in0.0 mm 0.00 in0.0 mm
07:18 AM 47.2°F8.4°C 44.9°F7.2°C 92% 7.2 mph NNE11.6 kmh NNE 8.6 mph13.8 kmh 30.03 in1016.9 mb 0.00 in0.0 mm 0.00 in0.0 mm 0.00 in0.0 mm
07:23 AM 47.4°F8.6°C 45.1°F7.3°C 92% 4.5 mph NE7.2 kmh NE 8.6 mph13.8 kmh 30.00 in1015.9 mb 0.00 in0.0 mm 0.00 in0.0 mm 0.00 in0.0 mm
07:28 AM 47.6°F8.7°C 45.3°F7.4°C 92% 7.3 mph NNE11.7 kmh NNE 9.8 mph15.8 kmh 30.00 in1015.9 mb 0.00 in0.0 mm 0.00 in0.0 mm 0.00 in0.0 mm
07:33 AM 47.6°F8.7°C 45.3°F7.4°C 92% 6.0 mph NE9.7 kmh NE 9.8 mph15.8 kmh 30.00 in1015.9 mb 0.00 in0.0 mm 0.00 in0.0 mm 0.00 in0.0 mm
07:38 AM 47.7°F8.7°C 45.4°F7.4°C 92% 5.4 mph NE8.7 kmh NE 9.8 mph15.8 kmh 30.03 in1016.9 mb 0.00 in0.0 mm 0.00 in0.0 mm 0.00 in0.0 mm
07:43 AM 47.9°F8.8°C 45.6°F7.6°C 92% 5.2 mph NE8.4 kmh NE 8.6 mph13.8 kmh 30.03 in1016.9 mb 0.00 in0.0 mm 0.00 in0.0 mm 0.00 in0.0 mm
07:48 AM 48.1°F8.9°C 45.5°F7.5°C 91% 4.1 mph NE6.6 kmh NE 8.6 mph13.8 kmh 30.03 in1016.9 mb 0.00 in0.0 mm 0.00 in0.0 mm 0.00 in0.0 mm
07:53 AM 48.1°F8.9°C 45.5°F7.5°C 91% 8.5 mph NNE13.7 kmh NNE 11.6 mph18.7 kmh 30.03 in1016.9 mb 0.00 in0.0 mm 0.00 in0.0 mm 0.00 in0.0 mm
07:58 AM 48.3°F9.1°C 45.7°F7.6°C 91% 6.2 mph NNE10.0 kmh NNE 11.6 mph18.7 kmh 30.03 in1016.9 mb 0.00 in0.0 mm 0.00 in0.0 mm 0.00 in0.0 mm
08:03 AM 48.5°F9.2°C 45.6°F7.6°C 90% 4.4 mph NE7.1 kmh NE 8.6 mph13.8 kmh 30.03 in1016.9 mb 0.00 in0.0 mm 0.00 in0.0 mm 0.00 in0.0 mm
08:08 AM 48.6°F9.2°C 45.7°F7.6°C 90% 6.2 mph NE10.0 kmh NE 7.6 mph12.2 kmh 30.03 in1016.9 mb 0.00 in0.0 mm 0.00 in0.0 mm 0.00 in0.0 mm
08:13 AM 48.6°F9.2°C 45.7°F7.6°C 90% 5.4 mph NNE8.7 kmh NNE 7.6 mph12.2 kmh 30.03 in1016.9 mb 0.00 in0.0 mm 0.00 in0.0 mm 0.00 in0.0 mm
08:18 AM 48.8°F9.3°C 45.6°F7.6°C 89% 5.4 mph NE8.7 kmh NE 9.4 mph15.1 kmh 30.03 in1016.9 mb 0.00 in0.0 mm 0.00 in0.0 mm 0.00 in0.0 mm
08:23 AM 49.0°F9.4°C 45.5°F7.5°C 88% 8.3 mph NE13.4 kmh NE 9.4 mph15.1 kmh 30.03 in1016.9 mb 0.00 in0.0 mm 0.00 in0.0 mm 0.00 in0.0 mm
08:28 AM 49.4°F9.7°C 45.9°F7.7°C 88% 5.8 mph NE9.3 kmh NE 9.0 mph14.5 kmh 30.03 in1016.9 mb 0.00 in0.0 mm 0.00 in0.0 mm 0.00 in0.0 mm
08:33 AM 49.7°F9.8°C 45.9°F7.7°C 87% 7.2 mph NNE11.6 kmh NNE 8.0 mph12.9 kmh 30.03 in1016.9 mb 0.00 in0.0 mm 0.00 in0.0 mm 0.00 in0.0 mm
08:39 AM 50.1°F10.1°C 46.0°F7.8°C 86% 5.3 mph ENE8.5 kmh ENE 8.0 mph12.9 kmh 30.03 in1016.9 mb 0.00 in0.0 mm 0.00 in0.0 mm 0.00 in0.0 mm
08:44 AM 50.1°F10.1°C 45.7°F7.6°C 85% 7.9 mph NE12.7 kmh NE 12.6 mph20.3 kmh 30.03 in1016.9 mb 0.00 in0.0 mm 0.00 in0.0 mm 0.00 in0.0 mm
08:49 AM 50.4°F10.2°C 46.0°F7.8°C 85% 6.2 mph NE10.0 kmh NE 12.6 mph20.3 kmh 30.03 in1016.9 mb 0.00 in0.0 mm 0.00 in0.0 mm 0.00 in0.0 mm
08:54 AM 50.8°F10.4°C 46.0°F7.8°C 84% 4.4 mph E7.1 kmh E 8.0 mph12.9 kmh 30.03 in1016.9 mb 0.00 in0.0 mm 0.00 in0.0 mm 0.00 in0.0 mm
09:00 AM 50.8°F10.4°C 45.7°F7.6°C 83% 9.4 mph ENE15.1 kmh ENE 9.4 mph15.1 kmh 30.03 in1016.9 mb 0.00 in0.0 mm 0.00 in0.0 mm 0.00 in0.0 mm
09:05 AM 51.0°F10.6°C 46.2°F7.9°C 84% 9.4 mph ENE15.1 kmh ENE 9.4 mph15.1 kmh 30.03 in1016.9 mb 0.00 in0.0 mm 0.00 in0.0 mm 0.00 in0.0 mm
09:10 AM 51.2°F10.7°C 46.4°F8.0°C 84% 7.3 mph NE11.7 kmh NE 11.2 mph18.0 kmh 30.00 in1015.9 mb 0.00 in0.0 mm 0.00 in0.0 mm 0.00 in0.0 mm
09:15 AM 51.5°F10.8°C 47.0°F8.3°C 85% 4.5 mph E7.2 kmh E 11.2 mph18.0 kmh 30.00 in1015.9 mb 0.00 in0.0 mm 0.00 in0.0 mm 0.00 in0.0 mm
09:20 AM 51.7°F10.9°C 46.9°F8.3°C 84% 6.1 mph NE9.8 kmh NE 11.2 mph18.0 kmh 30.00 in1015.9 mb 0.00 in0.0 mm 0.00 in0.0 mm 0.00 in0.0 mm
09:25 AM 52.2°F11.2°C 47.4°F8.6°C 84% 2.6 mph ESE4.2 kmh ESE 9.4 mph15.1 kmh 30.03 in1016.9 mb 0.00 in0.0 mm 0.00 in0.0 mm 0.00 in0.0 mm
09:30 AM 52.2°F11.2°C 47.4°F8.6°C 84% 4.7 mph ESE7.6 kmh ESE 8.0 mph12.9 kmh 30.03 in1016.9 mb 0.00 in0.0 mm 0.00 in0.0 mm 0.00 in0.0 mm
09:35 AM 52.1°F11.2°C 47.3°F8.5°C 84% 5.0 mph NE8.0 kmh NE 8.0 mph12.9 kmh 30.03 in1016.9 mb 0.00 in0.0 mm 0.00 in0.0 mm 0.00 in0.0 mm
09:40 AM 52.4°F11.3°C 47.6°F8.7°C 84% 3.8 mph E6.1 kmh E 8.0 mph12.9 kmh 30.03 in1016.9 mb 0.00 in0.0 mm 0.00 in0.0 mm 0.00 in0.0 mm
09:45 AM 52.8°F11.6°C 48.0°F8.9°C 84% 4.3 mph E6.9 kmh E 7.6 mph12.2 kmh 30.03 in1016.9 mb 0.00 in0.0 mm 0.00 in0.0 mm 0.00 in0.0 mm
09:50 AM 53.0°F11.7°C 48.2°F9.0°C 84% 4.3 mph E6.9 kmh E 6.8 mph10.9 kmh 30.03 in1016.9 mb 0.00 in0.0 mm 0.00 in0.0 mm 0.00 in0.0 mm
09:55 AM 53.0°F11.7°C 48.2°F9.0°C 84% 5.6 mph N9.0 kmh N 6.8 mph10.9 kmh 30.03 in1016.9 mb 0.00 in0.0 mm 0.00 in0.0 mm 0.00 in0.0 mm
10:00 AM 52.8°F11.6°C 47.7°F8.7°C 83% 9.0 mph N14.5 kmh N 11.6 mph18.7 kmh 30.03 in1016.9 mb 0.00 in0.0 mm 0.00 in0.0 mm 0.00 in0.0 mm
10:05 AM 53.0°F11.7°C 48.2°F9.0°C 84% 5.1 mph N8.2 kmh N 11.6 mph18.7 kmh 30.03 in1016.9 mb 0.00 in0.0 mm 0.00 in0.0 mm 0.00 in0.0 mm
10:11 AM 53.1°F11.7°C 48.3°F9.1°C 84% 5.6 mph NE9.0 kmh NE 8.6 mph13.8 kmh 30.06 in1017.9 mb 0.00 in0.0 mm 0.00 in0.0 mm 0.00 in0.0 mm
10:16 AM 53.3°F11.8°C 48.5°F9.2°C 84% 6.7 mph ENE10.8 kmh ENE 8.6 mph13.8 kmh 30.06 in1017.9 mb 0.00 in0.0 mm 0.00 in0.0 mm 0.00 in0.0 mm
10:21 AM 53.5°F11.9°C 48.7°F9.3°C 84% 4.1 mph ENE6.6 kmh ENE 8.6 mph13.8 kmh 30.06 in1017.9 mb 0.00 in0.0 mm 0.00 in0.0 mm 0.00 in0.0 mm
10:26 AM 53.9°F12.2°C 49.1°F9.5°C 84% 3.4 mph WNW5.5 kmh WNW 7.2 mph11.6 kmh 30.06 in1017.9 mb 0.00 in0.0 mm 0.00 in0.0 mm 0.00 in0.0 mm
10:31 AM 54.0°F12.2°C 49.2°F9.6°C 84% 2.7 mph WSW4.3 kmh WSW 5.4 mph8.7 kmh 30.06 in1017.9 mb 0.00 in0.0 mm 0.00 in0.0 mm 0.00 in0.0 mm
10:36 AM 54.4°F12.4°C 49.6°F9.8°C 84% 4.4 mph N7.1 kmh N 7.6 mph12.2 kmh 30.06 in1017.9 mb 0.00 in0.0 mm 0.00 in0.0 mm 0.00 in0.0 mm
10:42 AM 53.9°F12.2°C 49.1°F9.5°C 84% 4.2 mph NW6.8 kmh NW 7.6 mph12.2 kmh 30.06 in1017.9 mb 0.00 in0.0 mm 0.00 in0.0 mm 0.00 in0.0 mm
10:47 AM 54.0°F12.2°C 48.9°F9.4°C 83% 8.5 mph NNE13.7 kmh NNE 12.6 mph20.3 kmh 30.06 in1017.9 mb 0.00 in0.0 mm 0.00 in0.0 mm 0.00 in0.0 mm
10:52 AM 54.6°F12.6°C 49.5°F9.7°C 83% 7.3 mph NNE11.7 kmh NNE 12.6 mph20.3 kmh 30.06 in1017.9 mb 0.00 in0.0 mm 0.00 in0.0 mm 0.00 in0.0 mm
10:57 AM 54.4°F12.4°C 48.6°F9.2°C 81% 7.5 mph N12.1 kmh N 12.0 mph19.3 kmh 30.09 in1019.0 mb 0.00 in0.0 mm 0.00 in0.0 mm 0.00 in0.0 mm
11:02 AM 55.1°F12.8°C 49.0°F9.4°C 80% 7.7 mph N12.4 kmh N 12.0 mph19.3 kmh 30.09 in1019.0 mb 0.00 in0.0 mm 0.00 in0.0 mm 0.00 in0.0 mm
11:07 AM 56.0°F13.3°C 49.9°F9.9°C 80% 5.0 mph N8.0 kmh N 11.2 mph18.0 kmh 30.06 in1017.9 mb 0.00 in0.0 mm 0.00 in0.0 mm 0.00 in0.0 mm
11:12 AM 56.4°F13.6°C 49.2°F9.6°C 77% 5.4 mph W8.7 kmh W 7.2 mph11.6 kmh 30.06 in1017.9 mb 0.00 in0.0 mm 0.00 in0.0 mm 0.00 in0.0 mm
11:17 AM 56.7°F13.7°C 49.2°F9.6°C 76% 5.8 mph N9.3 kmh N 7.2 mph11.6 kmh 30.06 in1017.9 mb 0.00 in0.0 mm 0.00 in0.0 mm 0.00 in0.0 mm
11:22 AM 57.3°F14.1°C 48.7°F9.3°C 73% 7.7 mph NNE12.4 kmh NNE 13.4 mph21.6 kmh 30.06 in1017.9 mb 0.00 in0.0 mm 0.00 in0.0 mm 0.00 in0.0 mm
11:27 AM 58.4°F14.7°C 50.1°F10.1°C 74% 5.6 mph NNW9.0 kmh NNW 13.4 mph21.6 kmh 30.06 in1017.9 mb 0.00 in0.0 mm 0.00 in0.0 mm 0.00 in0.0 mm
11:33 AM 60.1°F15.6°C 50.8°F10.4°C 71% 7.2 mph N11.6 kmh N 12.6 mph20.3 kmh 30.06 in1017.9 mb 0.00 in0.0 mm 0.00 in0.0 mm 0.00 in0.0 mm
11:38 AM 59.9°F15.5°C 49.8°F9.9°C 69% 3.8 mph WNW6.1 kmh WNW 12.6 mph20.3 kmh 30.03 in1016.9 mb 0.00 in0.0 mm 0.00 in0.0 mm 0.00 in0.0 mm
11:43 AM 59.9°F15.5°C 49.8°F9.9°C 69% 6.2 mph N10.0 kmh N 8.0 mph12.9 kmh 30.03 in1016.9 mb 0.00 in0.0 mm 0.00 in0.0 mm 0.00 in0.0 mm
11:48 AM 61.0°F16.1°C 50.5°F10.3°C 68% 5.8 mph N9.3 kmh N 9.8 mph15.8 kmh 30.03 in1016.9 mb 0.00 in0.0 mm 0.00 in0.0 mm 0.00 in0.0 mm
11:53 AM 62.6°F17.0°C 51.6°F10.9°C 67% 6.6 mph SE10.6 kmh SE 9.8 mph15.8 kmh 30.03 in1016.9 mb 0.00 in0.0 mm 0.00 in0.0 mm 0.00 in0.0 mm
11:58 AM 64.0°F17.8°C 52.1°F11.2°C 65% 5.1 mph ESE8.2 kmh ESE 8.6 mph13.8 kmh 30.03 in1016.9 mb 0.00 in0.0 mm 0.00 in0.0 mm 0.00 in0.0 mm
12:03 PM 64.7°F18.2°C 51.9°F11.1°C 63% 5.0 mph SE8.0 kmh SE 10.8 mph17.4 kmh 30.03 in1016.9 mb 0.00 in0.0 mm 0.00 in0.0 mm 0.00 in0.0 mm
12:08 PM 65.5°F18.6°C 52.3°F11.3°C 62% 4.8 mph E7.7 kmh E 10.8 mph17.4 kmh 30.03 in1016.9 mb 0.00 in0.0 mm 0.00 in0.0 mm 0.00 in0.0 mm
12:13 PM 65.6°F18.7°C 51.0°F10.6°C 59% 7.0 mph S11.3 kmh S 8.0 mph12.9 kmh 30.03 in1016.9 mb 0.00 in0.0 mm 0.00 in0.0 mm 0.00 in0.0 mm
12:18 PM 66.9°F19.4°C 51.3°F10.7°C 57% 7.8 mph ESE12.6 kmh ESE 13.0 mph20.9 kmh 30.03 in1016.9 mb 0.00 in0.0 mm 0.00 in0.0 mm 0.00 in0.0 mm
12:24 PM 66.7°F19.3°C 50.6°F10.3°C 56% 5.4 mph S8.7 kmh S 13.0 mph20.9 kmh 30.03 in1016.9 mb 0.00 in0.0 mm 0.00 in0.0 mm 0.00 in0.0 mm
12:29 PM 68.5°F20.3°C 52.8°F11.6°C 57% 5.9 mph ENE9.5 kmh ENE 12.6 mph20.3 kmh 30.03 in1016.9 mb 0.00 in0.0 mm 0.00 in0.0 mm 0.00 in0.0 mm
12:34 PM 70.0°F21.1°C 53.2°F11.8°C 55% 4.5 mph SE7.2 kmh SE 8.0 mph12.9 kmh 30.03 in1016.9 mb 0.00 in0.0 mm 0.00 in0.0 mm 0.00 in0.0 mm
12:39 PM 69.6°F20.9°C 51.8°F11.0°C 53% 2.7 mph SSE4.3 kmh SSE 8.0 mph12.9 kmh 30.03 in1016.9 mb 0.00 in0.0 mm 0.00 in0.0 mm 0.00 in0.0 mm
12:45 PM 70.5°F21.4°C 51.5°F10.8°C 51% 7.4 mph SE11.9 kmh SE 11.6 mph18.7 kmh 30.03 in1016.9 mb 0.00 in0.0 mm 0.00 in0.0 mm 0.00 in0.0 mm
12:50 PM 71.0°F21.7°C 51.4°F10.8°C 50% 5.7 mph SE9.2 kmh SE 11.6 mph18.7 kmh 30.03 in1016.9 mb 0.00 in0.0 mm 0.00 in0.0 mm 0.00 in0.0 mm
12:55 PM 71.6°F22.0°C 51.4°F10.8°C 49% 7.0 mph SSE11.3 kmh SSE 11.2 mph18.0 kmh 30.00 in1015.9 mb 0.00 in0.0 mm 0.00 in0.0 mm 0.00 in0.0 mm
01:00 PM 70.5°F21.4°C 51.0°F10.6°C 50% 6.3 mph S10.1 kmh S 11.2 mph18.0 kmh 30.00 in1015.9 mb 0.00 in0.0 mm 0.00 in0.0 mm 0.00 in0.0 mm
01:05 PM 71.2°F21.8°C 51.6°F10.9°C 50% 10.6 mph SE17.1 kmh SE 14.8 mph23.8 kmh 30.00 in1015.9 mb 0.00 in0.0 mm 0.00 in0.0 mm 0.00 in0.0 mm
01:10 PM 72.7°F22.6°C 53.0°F11.7°C 50% 5.9 mph ESE9.5 kmh ESE 14.8 mph23.8 kmh 30.00 in1015.9 mb 0.00 in0.0 mm 0.00 in0.0 mm 0.00 in0.0 mm
01:16 PM 72.3°F22.4°C 51.5°F10.8°C 48% 5.9 mph NW9.5 kmh NW 9.8 mph15.8 kmh 30.00 in1015.9 mb 0.00 in0.0 mm 0.00 in0.0 mm 0.00 in0.0 mm
01:21 PM 74.3°F23.5°C 53.3°F11.8°C 48% 6.6 mph SE10.6 kmh SE 8.6 mph13.8 kmh 30.00 in1015.9 mb 0.00 in0.0 mm 0.00 in0.0 mm 0.00 in0.0 mm
01:26 PM 75.9°F24.4°C 54.8°F12.7°C 48% 2.4 mph SSW3.9 kmh SSW 8.6 mph13.8 kmh 30.00 in1015.9 mb 0.00 in0.0 mm 0.00 in0.0 mm 0.00 in0.0 mm
01:31 PM 77.2°F25.1°C 54.2°F12.3°C 45% 6.5 mph S10.5 kmh S 7.6 mph12.2 kmh 30.00 in1015.9 mb 0.00 in0.0 mm 0.00 in0.0 mm 0.00 in0.0 mm
01:36 PM 77.3°F25.2°C 54.2°F12.3°C 45% 4.8 mph SW7.7 kmh SW 7.6 mph12.2 kmh 30.00 in1015.9 mb 0.00 in0.0 mm 0.00 in0.0 mm 0.00 in0.0 mm
01:41 PM 75.2°F24.0°C 52.3°F11.3°C 45% 6.9 mph NW11.1 kmh NW 9.8 mph15.8 kmh 29.97 in1014.9 mb 0.00 in0.0 mm 0.00 in0.0 mm 0.00 in0.0 mm
01:47 PM 77.7°F25.4°C 54.6°F12.6°C 45% 5.1 mph SSE8.2 kmh SSE 9.8 mph15.8 kmh 29.97 in1014.9 mb 0.00 in0.0 mm 0.00 in0.0 mm 0.00 in0.0 mm
01:52 PM 77.0°F25.0°C 54.0°F12.2°C 45% 6.2 mph SW10.0 kmh SW 12.0 mph19.3 kmh 29.97 in1014.9 mb 0.00 in0.0 mm 0.00 in0.0 mm 0.00 in0.0 mm
01:57 PM 77.3°F25.2°C 54.2°F12.3°C 45% 8.6 mph S13.8 kmh S 12.0 mph19.3 kmh 29.97 in1014.9 mb 0.00 in0.0 mm 0.00 in0.0 mm 0.00 in0.0 mm
02:02 PM 78.6°F25.9°C 54.8°F12.7°C 44% 5.9 mph SSE9.5 kmh SSE 12.0 mph19.3 kmh 29.97 in1014.9 mb 0.00 in0.0 mm 0.00 in0.0 mm 0.00 in0.0 mm
02:07 PM 77.3°F25.2°C 54.2°F12.3°C 45% 4.7 mph W7.6 kmh W 11.6 mph18.7 kmh 29.97 in1014.9 mb 0.00 in0.0 mm 0.00 in0.0 mm 0.00 in0.0 mm
02:12 PM 79.7°F26.5°C 56.4°F13.6°C 45% 3.6 mph S5.8 kmh S 11.6 mph18.7 kmh 29.97 in1014.9 mb 0.00 in0.0 mm 0.00 in0.0 mm 0.00 in0.0 mm
02:17 PM 80.0°F26.7°C 56.1°F13.4°C 44% 5.6 mph SSE9.0 kmh SSE 8.6 mph13.8 kmh 29.97 in1014.9 mb 0.00 in0.0 mm 0.00 in0.0 mm 0.00 in0.0 mm
02:22 PM 80.8°F27.1°C 56.1°F13.4°C 43% 6.2 mph SSW10.0 kmh SSW 11.6 mph18.7 kmh 29.94 in1013.9 mb 0.00 in0.0 mm 0.00 in0.0 mm 0.00 in0.0 mm
02:29 PM 80.6°F27.0°C 56.6°F13.7°C 44% 5.9 mph SSW9.5 kmh SSW 10.8 mph17.4 kmh 29.94 in1013.9 mb 0.00 in0.0 mm 0.00 in0.0 mm 0.00 in0.0 mm
02:34 PM 79.9°F26.6°C 56.0°F13.3°C 44% 7.0 mph SW11.3 kmh SW 11.6 mph18.7 kmh 29.94 in1013.9 mb 0.00 in0.0 mm 0.00 in0.0 mm 0.00 in0.0 mm
02:39 PM 79.5°F26.4°C 55.6°F13.1°C 44% 5.2 mph SW8.4 kmh SW 11.6 mph18.7 kmh 29.97 in1014.9 mb 0.00 in0.0 mm 0.00 in0.0 mm 0.00 in0.0 mm
02:44 PM 79.9°F26.6°C 56.0°F13.3°C 44% 7.8 mph SW12.6 kmh SW 12.0 mph19.3 kmh 29.97 in1014.9 mb 0.00 in0.0 mm 0.00 in0.0 mm 0.00 in0.0 mm
02:50 PM 79.9°F26.6°C 56.0°F13.3°C 44% 9.5 mph S15.3 kmh S 15.6 mph25.1 kmh 29.97 in1014.9 mb 0.00 in0.0 mm 0.00 in0.0 mm 0.00 in0.0 mm
02:55 PM 78.1°F25.6°C 55.0°F12.8°C 45% 5.8 mph SSW9.3 kmh SSW 15.6 mph25.1 kmh 29.97 in1014.9 mb 0.00 in0.0 mm 0.00 in0.0 mm 0.00 in0.0 mm
03:00 PM 77.3°F25.2°C 54.2°F12.3°C 45% 6.5 mph SSW10.5 kmh SSW 10.8 mph17.4 kmh 29.97 in1014.9 mb 0.00 in0.0 mm 0.00 in0.0 mm 0.00 in0.0 mm
03:05 PM 78.1°F25.6°C 55.6°F13.1°C 46% 10.7 mph S17.2 kmh S 13.8 mph22.2 kmh 29.97 in1014.9 mb 0.00 in0.0 mm 0.00 in0.0 mm 0.00 in0.0 mm
03:11 PM 79.0°F26.1°C 55.8°F13.2°C 45% 6.6 mph S10.6 kmh S 13.8 mph22.2 kmh 29.97 in1014.9 mb 0.00 in0.0 mm 0.00 in0.0 mm 0.00 in0.0 mm
03:16 PM 79.1°F26.2°C 55.9°F13.3°C 45% 5.5 mph S8.9 kmh S 11.2 mph18.0 kmh 29.97 in1014.9 mb 0.00 in0.0 mm 0.00 in0.0 mm 0.00 in0.0 mm
03:21 PM 79.5°F26.4°C 56.2°F13.4°C 45% 6.8 mph SSW10.9 kmh SSW 8.6 mph13.8 kmh 29.97 in1014.9 mb 0.00 in0.0 mm 0.00 in0.0 mm 0.00 in0.0 mm
03:26 PM 78.6°F25.9°C 55.4°F13.0°C 45% 7.5 mph S12.1 kmh S 9.8 mph15.8 kmh 29.94 in1013.9 mb 0.00 in0.0 mm 0.00 in0.0 mm 0.00 in0.0 mm
03:31 PM 77.2°F25.1°C 54.8°F12.7°C 46% 5.7 mph SSW9.2 kmh SSW 17.0 mph27.4 kmh 29.94 in1013.9 mb 0.00 in0.0 mm 0.00 in0.0 mm 0.00 in0.0 mm
03:36 PM 79.0°F26.1°C 56.4°F13.6°C 46% 4.5 mph S7.2 kmh S 17.0 mph27.4 kmh 29.94 in1013.9 mb 0.00 in0.0 mm 0.00 in0.0 mm 0.00 in0.0 mm
03:41 PM 79.5°F26.4°C 56.2°F13.4°C 45% 9.5 mph S15.3 kmh S 14.8 mph23.8 kmh 29.91 in1012.9 mb 0.00 in0.0 mm 0.00 in0.0 mm 0.00 in0.0 mm
03:46 PM 80.0°F26.7°C 56.7°F13.7°C 45% 9.3 mph S15.0 kmh S 14.8 mph23.8 kmh 29.91 in1012.9 mb 0.00 in0.0 mm 0.00 in0.0 mm 0.00 in0.0 mm
03:51 PM 80.4°F26.9°C 56.4°F13.6°C 44% 13.0 mph S20.9 kmh S 19.6 mph31.5 kmh 29.91 in1012.9 mb 0.00 in0.0 mm 0.00 in0.0 mm 0.00 in0.0 mm
03:56 PM 81.1°F27.3°C 57.1°F13.9°C 44% 8.2 mph S13.2 kmh S 19.6 mph31.5 kmh 29.91 in1012.9 mb 0.00 in0.0 mm 0.00 in0.0 mm 0.00 in0.0 mm
04:01 PM 81.3°F27.4°C 56.6°F13.7°C 43% 6.5 mph W10.5 kmh W 14.4 mph23.2 kmh 29.91 in1012.9 mb 0.00 in0.0 mm 0.00 in0.0 mm 0.00 in0.0 mm
04:06 PM 82.2°F27.9°C 56.7°F13.7°C 42% 9.6 mph S15.4 kmh S 13.0 mph20.9 kmh 29.91 in1012.9 mb 0.00 in0.0 mm 0.00 in0.0 mm 0.00 in0.0 mm
04:11 PM 81.8°F27.7°C 56.4°F13.6°C 42% 9.8 mph SSW15.8 kmh SSW 14.4 mph23.2 kmh 29.88 in1011.9 mb 0.00 in0.0 mm 0.00 in0.0 mm 0.00 in0.0 mm
04:16 PM 81.7°F27.6°C 55.6°F13.1°C 41% 8.5 mph SW13.7 kmh SW 15.2 mph24.5 kmh 29.88 in1011.9 mb 0.00 in0.0 mm 0.00 in0.0 mm 0.00 in0.0 mm
04:21 PM 82.6°F28.1°C 56.4°F13.6°C 41% 6.3 mph WSW10.1 kmh WSW 15.2 mph24.5 kmh 29.88 in1011.9 mb 0.00 in0.0 mm 0.00 in0.0 mm 0.00 in0.0 mm
04:26 PM 82.7°F28.2°C 55.8°F13.2°C 40% 9.7 mph WSW15.6 kmh WSW 12.0 mph19.3 kmh 29.94 in1013.9 mb 0.00 in0.0 mm 0.00 in0.0 mm 0.00 in0.0 mm
04:31 PM 82.2°F27.9°C 55.3°F12.9°C 40% 12.4 mph W20.0 kmh W 15.6 mph25.1 kmh 29.94 in1013.9 mb 0.00 in0.0 mm 0.00 in0.0 mm 0.00 in0.0 mm
04:36 PM 81.8°F27.7°C 55.7°F13.2°C 41% 7.6 mph SSW12.2 kmh SSW 15.6 mph25.1 kmh 29.94 in1013.9 mb 0.00 in0.0 mm 0.00 in0.0 mm 0.00 in0.0 mm
04:41 PM 80.9°F27.2°C 54.9°F12.7°C 41% 7.1 mph WSW11.4 kmh WSW 15.6 mph25.1 kmh 29.91 in1012.9 mb 0.00 in0.0 mm 0.00 in0.0 mm 0.00 in0.0 mm
04:46 PM 79.9°F26.6°C 54.6°F12.6°C 42% 10.3 mph W16.6 kmh W 14.8 mph23.8 kmh 29.91 in1012.9 mb 0.00 in0.0 mm 0.00 in0.0 mm 0.00 in0.0 mm
04:51 PM 79.5°F26.4°C 55.0°F12.8°C 43% 9.8 mph WSW15.8 kmh WSW 15.2 mph24.5 kmh 29.91 in1012.9 mb 0.00 in0.0 mm 0.00 in0.0 mm 0.00 in0.0 mm
04:56 PM 79.1°F26.2°C 54.6°F12.6°C 43% 10.2 mph SW16.4 kmh SW 15.2 mph24.5 kmh 29.91 in1012.9 mb 0.00 in0.0 mm 0.00 in0.0 mm 0.00 in0.0 mm
05:02 PM 79.1°F26.2°C 55.2°F12.9°C 44% 7.2 mph WSW11.6 kmh WSW 14.4 mph23.2 kmh 29.91 in1012.9 mb 0.00 in0.0 mm 0.00 in0.0 mm 0.00 in0.0 mm
05:07 PM 80.4°F26.9°C 56.4°F13.6°C 44% 5.5 mph SSW8.9 kmh SSW 13.0 mph20.9 kmh 29.91 in1012.9 mb 0.00 in0.0 mm 0.00 in0.0 mm 0.00 in0.0 mm
05:12 PM 80.8°F27.1°C 56.1°F13.4°C 43% 8.3 mph SSW13.4 kmh SSW 13.0 mph20.9 kmh 29.91 in1012.9 mb 0.00 in0.0 mm 0.00 in0.0 mm 0.00 in0.0 mm
05:17 PM 79.1°F26.2°C 55.2°F12.9°C 44% 7.0 mph SSW11.3 kmh SSW 12.6 mph20.3 kmh 29.91 in1012.9 mb 0.00 in0.0 mm 0.00 in0.0 mm 0.00 in0.0 mm
05:23 PM 79.7°F26.5°C 55.8°F13.2°C 44% 5.7 mph S9.2 kmh S 11.2 mph18.0 kmh 29.88 in1011.9 mb 0.00 in0.0 mm 0.00 in0.0 mm 0.00 in0.0 mm
05:28 PM 80.8°F27.1°C 56.8°F13.8°C 44% 5.7 mph SW9.2 kmh SW 9.8 mph15.8 kmh 29.88 in1011.9 mb 0.00 in0.0 mm 0.00 in0.0 mm 0.00 in0.0 mm
05:34 PM 80.8°F27.1°C 56.1°F13.4°C 43% 6.5 mph SSW10.5 kmh SSW 8.6 mph13.8 kmh 29.88 in1011.9 mb 0.00 in0.0 mm 0.00 in0.0 mm 0.00 in0.0 mm
05:39 PM 80.6°F27.0°C 56.6°F13.7°C 44% 4.5 mph SSW7.2 kmh SSW 8.6 mph13.8 kmh 29.88 in1011.9 mb 0.00 in0.0 mm 0.00 in0.0 mm 0.00 in0.0 mm
05:45 PM 79.0°F26.1°C 55.2°F12.9°C 44% 6.1 mph S9.8 kmh S 14.4 mph23.2 kmh 29.88 in1011.9 mb 0.00 in0.0 mm 0.00 in0.0 mm 0.00 in0.0 mm
05:50 PM 78.4°F25.8°C 55.2°F12.9°C 45% 7.6 mph S12.2 kmh S 14.4 mph23.2 kmh 29.88 in1011.9 mb 0.00 in0.0 mm 0.00 in0.0 mm 0.00 in0.0 mm
05:55 PM 78.2°F25.7°C 55.7°F13.2°C 46% 7.3 mph S11.7 kmh S 11.2 mph18.0 kmh 29.88 in1011.9 mb 0.00 in0.0 mm 0.00 in0.0 mm 0.00 in0.0 mm
06:00 PM 77.9°F25.5°C 55.4°F13.0°C 46% 6.8 mph S10.9 kmh S 11.2 mph18.0 kmh 29.88 in1011.9 mb 0.00 in0.0 mm 0.00 in0.0 mm 0.00 in0.0 mm
06:05 PM 77.3°F25.2°C 55.5°F13.1°C 47% 5.9 mph S9.5 kmh S 13.0 mph20.9 kmh 29.88 in1011.9 mb 0.00 in0.0 mm 0.00 in0.0 mm 0.00 in0.0 mm
06:10 PM 77.2°F25.1°C 56.0°F13.3°C 48% 5.3 mph SSW8.5 kmh SSW 13.0 mph20.9 kmh 29.88 in1011.9 mb 0.00 in0.0 mm 0.00 in0.0 mm 0.00 in0.0 mm
06:15 PM 77.2°F25.1°C 56.6°F13.7°C 49% 6.0 mph S9.7 kmh S 8.6 mph13.8 kmh 29.88 in1011.9 mb 0.00 in0.0 mm 0.00 in0.0 mm 0.00 in0.0 mm
06:20 PM 76.8°F24.9°C 56.2°F13.4°C 49% 9.3 mph S15.0 kmh S 17.0 mph27.4 kmh 29.88 in1011.9 mb 0.00 in0.0 mm 0.00 in0.0 mm 0.00 in0.0 mm
06:25 PM 76.6°F24.8°C 56.6°F13.7°C 50% 9.1 mph S14.6 kmh S 17.0 mph27.4 kmh 29.88 in1011.9 mb 0.00 in0.0 mm 0.00 in0.0 mm 0.00 in0.0 mm
06:30 PM 76.4°F24.7°C 57.0°F13.9°C 51% 7.8 mph S12.6 kmh S 16.2 mph26.1 kmh 29.88 in1011.9 mb 0.00 in0.0 mm 0.00 in0.0 mm 0.00 in0.0 mm
06:35 PM 76.1°F24.5°C 57.3°F14.1°C 52% 6.7 mph S10.8 kmh S 10.8 mph17.4 kmh 29.88 in1011.9 mb 0.00 in0.0 mm 0.00 in0.0 mm 0.00 in0.0 mm
06:40 PM 75.7°F24.3°C 57.4°F14.1°C 53% 6.6 mph S10.6 kmh S 9.4 mph15.1 kmh 29.88 in1011.9 mb 0.00 in0.0 mm 0.00 in0.0 mm 0.00 in0.0 mm
06:45 PM 75.5°F24.2°C 57.2°F14.0°C 53% 6.6 mph S10.6 kmh S 9.8 mph15.8 kmh 29.88 in1011.9 mb 0.00 in0.0 mm 0.00 in0.0 mm 0.00 in0.0 mm
06:50 PM 75.5°F24.2°C 57.8°F14.3°C 54% 4.8 mph S7.7 kmh S 11.6 mph18.7 kmh 29.88 in1011.9 mb 0.00 in0.0 mm 0.00 in0.0 mm 0.00 in0.0 mm
06:55 PM 75.5°F24.2°C 58.3°F14.6°C 55% 4.8 mph SW7.7 kmh SW 11.6 mph18.7 kmh 29.88 in1011.9 mb 0.00 in0.0 mm 0.00 in0.0 mm 0.00 in0.0 mm
07:00 PM 75.7°F24.3°C 58.5°F14.7°C 55% 3.7 mph S6.0 kmh S 5.4 mph8.7 kmh 29.88 in1011.9 mb 0.00 in0.0 mm 0.00 in0.0 mm 0.00 in0.0 mm
07:05 PM 75.4°F24.1°C 58.2°F14.6°C 55% 4.5 mph S7.2 kmh S 6.8 mph10.9 kmh 29.88 in1011.9 mb 0.00 in0.0 mm 0.00 in0.0 mm 0.00 in0.0 mm
07:10 PM 75.0°F23.9°C 57.8°F14.3°C 55% 7.1 mph S11.4 kmh S 7.6 mph12.2 kmh 29.88 in1011.9 mb 0.00 in0.0 mm 0.00 in0.0 mm 0.00 in0.0 mm
07:15 PM 74.8°F23.8°C 58.2°F14.6°C 56% 5.2 mph S8.4 kmh S 8.6 mph13.8 kmh 29.88 in1011.9 mb 0.00 in0.0 mm 0.00 in0.0 mm 0.00 in0.0 mm
07:20 PM 74.6°F23.7°C 58.0°F14.4°C 56% 5.0 mph SSW8.0 kmh SSW 11.6 mph18.7 kmh 29.88 in1011.9 mb 0.00 in0.0 mm 0.00 in0.0 mm 0.00 in0.0 mm
07:26 PM 74.1°F23.4°C 58.0°F14.4°C 57% 5.0 mph S8.0 kmh S 11.6 mph18.7 kmh 29.88 in1011.9 mb 0.00 in0.0 mm 0.00 in0.0 mm 0.00 in0.0 mm
07:31 PM 73.7°F23.2°C 57.6°F14.2°C 57% 4.6 mph S7.4 kmh S 6.2 mph10.0 kmh 29.88 in1011.9 mb 0.00 in0.0 mm 0.00 in0.0 mm 0.00 in0.0 mm
07:36 PM 73.4°F23.0°C 57.8°F14.3°C 58% 4.4 mph S7.1 kmh S 5.8 mph9.3 kmh 29.88 in1011.9 mb 0.00 in0.0 mm 0.00 in0.0 mm 0.00 in0.0 mm
07:41 PM 72.7°F22.6°C 57.7°F14.3°C 59% 2.3 mph SSW3.7 kmh SSW 5.8 mph9.3 kmh 29.85 in1010.8 mb 0.00 in0.0 mm 0.00 in0.0 mm 0.00 in0.0 mm
07:46 PM 72.1°F22.3°C 57.6°F14.2°C 60% 5.3 mph S8.5 kmh S 7.2 mph11.6 kmh 29.85 in1010.8 mb 0.00 in0.0 mm 0.00 in0.0 mm 0.00 in0.0 mm
07:51 PM 72.1°F22.3°C 58.1°F14.5°C 61% 5.0 mph S8.0 kmh S 7.2 mph11.6 kmh 29.85 in1010.8 mb 0.00 in0.0 mm 0.00 in0.0 mm 0.00 in0.0 mm
07:56 PM 71.4°F21.9°C 57.4°F14.1°C 61% Calm Calm 6.8 mph10.9 kmh 29.85 in1010.8 mb 0.00 in0.0 mm 0.00 in0.0 mm 0.00 in0.0 mm
08:01 PM 71.0°F21.7°C 57.9°F14.4°C 63% 3.9 mph S6.3 kmh S 5.0 mph8.0 kmh 29.85 in1010.8 mb 0.00 in0.0 mm 0.00 in0.0 mm 0.00 in0.0 mm
08:06 PM 70.5°F21.4°C 57.4°F14.1°C 63% 2.2 mph S3.5 kmh S 5.0 mph8.0 kmh 29.85 in1010.8 mb 0.00 in0.0 mm 0.00 in0.0 mm 0.00 in0.0 mm
08:11 PM 70.1°F21.2°C 57.9°F14.4°C 65% 4.9 mph S7.9 kmh S 5.8 mph9.3 kmh 29.85 in1010.8 mb 0.00 in0.0 mm 0.00 in0.0 mm 0.00 in0.0 mm
08:19 PM 70.3°F21.3°C 58.5°F14.7°C 66% 5.2 mph S8.4 kmh S 6.2 mph10.0 kmh 29.85 in1010.8 mb 0.00 in0.0 mm 0.00 in0.0 mm 0.00 in0.0 mm
08:24 PM 70.0°F21.1°C 57.8°F14.3°C 65% 4.4 mph S7.1 kmh S 6.2 mph10.0 kmh 29.85 in1010.8 mb 0.00 in0.0 mm 0.00 in0.0 mm 0.00 in0.0 mm
08:29 PM 69.2°F20.7°C 57.1°F13.9°C 65% 2.7 mph SSE4.3 kmh SSE 5.0 mph8.0 kmh 29.85 in1010.8 mb 0.00 in0.0 mm 0.00 in0.0 mm 0.00 in0.0 mm
08:34 PM 69.1°F20.6°C 57.4°F14.1°C 66% 3.1 mph SSE5.0 kmh SSE 4.4 mph7.1 kmh 29.85 in1010.8 mb 0.00 in0.0 mm 0.00 in0.0 mm 0.00 in0.0 mm
08:40 PM 68.9°F20.5°C 57.2°F14.0°C 66% 2.3 mph SSE3.7 kmh SSE 4.4 mph7.1 kmh 29.88 in1011.9 mb 0.00 in0.0 mm 0.00 in0.0 mm 0.00 in0.0 mm
08:45 PM 68.7°F20.4°C 57.0°F13.9°C 66% 3.1 mph SSE5.0 kmh SSE 4.0 mph6.4 kmh 29.88 in1011.9 mb 0.00 in0.0 mm 0.00 in0.0 mm 0.00 in0.0 mm
08:50 PM 68.5°F20.3°C 57.2°F14.0°C 67% 4.5 mph SE7.2 kmh SE 5.0 mph8.0 kmh 29.88 in1011.9 mb 0.00 in0.0 mm 0.00 in0.0 mm 0.00 in0.0 mm
08:55 PM 68.5°F20.3°C 57.7°F14.3°C 68% 4.9 mph SE7.9 kmh SE 7.6 mph12.2 kmh 29.85 in1010.8 mb 0.00 in0.0 mm 0.00 in0.0 mm 0.00 in0.0 mm
09:00 PM 68.3°F20.2°C 57.5°F14.2°C 68% 4.0 mph SE6.4 kmh SE 7.6 mph12.2 kmh 29.85 in1010.8 mb 0.00 in0.0 mm 0.00 in0.0 mm 0.00 in0.0 mm
09:05 PM 68.2°F20.1°C 57.4°F14.1°C 68% 2.3 mph ESE3.7 kmh ESE 5.0 mph8.0 kmh 29.85 in1010.8 mb 0.00 in0.0 mm 0.00 in0.0 mm 0.00 in0.0 mm
09:11 PM 67.8°F19.9°C 57.4°F14.1°C 69% 2.9 mph ESE4.7 kmh ESE 5.0 mph8.0 kmh 29.83 in1010.2 mb 0.00 in0.0 mm 0.00 in0.0 mm 0.00 in0.0 mm
09:16 PM 67.6°F19.8°C 57.6°F14.2°C 70% 3.4 mph ESE5.5 kmh ESE 4.0 mph6.4 kmh 29.83 in1010.2 mb 0.00 in0.0 mm 0.00 in0.0 mm 0.00 in0.0 mm
09:21 PM 67.4°F19.7°C 57.4°F14.1°C 70% 4.6 mph ESE7.4 kmh ESE 5.0 mph8.0 kmh 29.83 in1010.2 mb 0.00 in0.0 mm 0.00 in0.0 mm 0.00 in0.0 mm
09:26 PM 67.3°F19.6°C 57.7°F14.3°C 71% 4.5 mph ESE7.2 kmh ESE 5.4 mph8.7 kmh 29.85 in1010.8 mb 0.00 in0.0 mm 0.00 in0.0 mm 0.00 in0.0 mm
09:32 PM 67.3°F19.6°C 57.7°F14.3°C 71% 2.4 mph ESE3.9 kmh ESE 5.4 mph8.7 kmh 29.85 in1010.8 mb 0.00 in0.0 mm 0.00 in0.0 mm 0.00 in0.0 mm
09:37 PM 66.7°F19.3°C 57.5°F14.2°C 72% Calm Calm 4.0 mph6.4 kmh 29.85 in1010.8 mb 0.00 in0.0 mm 0.00 in0.0 mm 0.00 in0.0 mm
09:42 PM 66.2°F19.0°C 56.6°F13.7°C 71% Calm Calm 3.2 mph5.1 kmh 29.85 in1010.8 mb 0.00 in0.0 mm 0.00 in0.0 mm 0.00 in0.0 mm
09:47 PM 66.0°F18.9°C 56.8°F13.8°C 72% 2.3 mph ESE3.7 kmh ESE 3.2 mph5.1 kmh 29.85 in1010.8 mb 0.00 in0.0 mm 0.00 in0.0 mm 0.00 in0.0 mm
09:52 PM 65.6°F18.7°C 56.8°F13.8°C 73% 2.0 mph ESE3.2 kmh ESE 3.2 mph5.1 kmh 29.85 in1010.8 mb 0.00 in0.0 mm 0.00 in0.0 mm 0.00 in0.0 mm
09:57 PM 65.5°F18.6°C 56.7°F13.7°C 73% Calm Calm 3.2 mph5.1 kmh 29.85 in1010.8 mb 0.00 in0.0 mm 0.00 in0.0 mm 0.00 in0.0 mm
10:02 PM 64.9°F18.3°C 56.5°F13.6°C 74% Calm Calm -- 29.85 in1010.8 mb 0.00 in0.0 mm 0.00 in0.0 mm 0.00 in0.0 mm
10:07 PM 64.6°F18.1°C 56.6°F13.7°C 75% Calm Calm -- 29.85 in1010.8 mb 0.00 in0.0 mm 0.00 in0.0 mm 0.00 in0.0 mm
10:12 PM 64.2°F17.9°C 56.2°F13.4°C 75% Calm Calm -- 29.85 in1010.8 mb 0.00 in0.0 mm 0.00 in0.0 mm 0.00 in0.0 mm
10:17 PM 63.8°F17.7°C 56.5°F13.6°C 77% Calm Calm -- 29.85 in1010.8 mb 0.00 in0.0 mm 0.00 in0.0 mm 0.00 in0.0 mm
10:22 PM 63.5°F17.5°C 56.2°F13.4°C 77% 2.2 mph ESE3.5 kmh ESE 2.6 mph4.2 kmh 29.85 in1010.8 mb 0.00 in0.0 mm 0.00 in0.0 mm 0.00 in0.0 mm
10:27 PM 63.1°F17.3°C 55.8°F13.2°C 77% 2.8 mph ESE4.5 kmh ESE 4.0 mph6.4 kmh 29.85 in1010.8 mb 0.00 in0.0 mm 0.00 in0.0 mm 0.00 in0.0 mm
10:33 PM 63.1°F17.3°C 56.2°F13.4°C 78% 2.5 mph ESE4.0 kmh ESE 4.0 mph6.4 kmh 29.85 in1010.8 mb 0.00 in0.0 mm 0.00 in0.0 mm 0.00 in0.0 mm
10:38 PM 63.1°F17.3°C 56.5°F13.6°C 79% Calm Calm 3.2 mph5.1 kmh 29.85 in1010.8 mb 0.00 in0.0 mm 0.00 in0.0 mm 0.00 in0.0 mm
10:43 PM 63.3°F17.4°C 56.4°F13.6°C 78% 3.6 mph ESE5.8 kmh ESE 4.4 mph7.1 kmh 29.85 in1010.8 mb 0.00 in0.0 mm 0.00 in0.0 mm 0.00 in0.0 mm
10:48 PM 63.8°F17.7°C 57.2°F14.0°C 79% 4.7 mph ESE7.6 kmh ESE 5.0 mph8.0 kmh 29.85 in1010.8 mb 0.00 in0.0 mm 0.00 in0.0 mm 0.00 in0.0 mm
10:53 PM 64.7°F18.2°C 57.4°F14.1°C 77% 4.3 mph SE6.9 kmh SE 5.0 mph8.0 kmh 29.83 in1010.2 mb 0.00 in0.0 mm 0.00 in0.0 mm 0.00 in0.0 mm
10:58 PM 64.7°F18.2°C 57.0°F13.9°C 76% 3.3 mph SE5.3 kmh SE 5.0 mph8.0 kmh 29.83 in1010.2 mb 0.00 in0.0 mm 0.00 in0.0 mm 0.00 in0.0 mm
11:03 PM 64.6°F18.1°C 56.9°F13.8°C 76% 3.5 mph SSE5.6 kmh SSE 5.0 mph8.0 kmh 29.83 in1010.2 mb 0.00 in0.0 mm 0.00 in0.0 mm 0.00 in0.0 mm
11:08 PM 64.2°F17.9°C 56.2°F13.4°C 75% 2.5 mph SSE4.0 kmh SSE 5.0 mph8.0 kmh 29.83 in1010.2 mb 0.00 in0.0 mm 0.00 in0.0 mm 0.00 in0.0 mm
11:13 PM 64.0°F17.8°C 56.4°F13.6°C 76% Calm Calm 3.2 mph5.1 kmh 29.83 in1010.2 mb 0.00 in0.0 mm 0.00 in0.0 mm 0.00 in0.0 mm
11:18 PM 64.0°F17.8°C 56.4°F13.6°C 76% 2.5 mph SSE4.0 kmh SSE 3.2 mph5.1 kmh 29.83 in1010.2 mb 0.00 in0.0 mm 0.00 in0.0 mm 0.00 in0.0 mm
11:23 PM 64.0°F17.8°C 56.4°F13.6°C 76% 3.3 mph SSE5.3 kmh SSE 4.0 mph6.4 kmh 29.83 in1010.2 mb 0.00 in0.0 mm 0.00 in0.0 mm 0.00 in0.0 mm
11:28 PM 64.2°F17.9°C 56.2°F13.4°C 75% 4.9 mph ESE7.9 kmh ESE 5.4 mph8.7 kmh 29.83 in1010.2 mb 0.00 in0.0 mm 0.00 in0.0 mm 0.00 in0.0 mm
11:33 PM 64.7°F18.2°C 56.7°F13.7°C 75% 4.5 mph ESE7.2 kmh ESE 5.4 mph8.7 kmh 29.83 in1010.2 mb 0.00 in0.0 mm 0.00 in0.0 mm 0.00 in0.0 mm
11:38 PM 65.5°F18.6°C 57.1°F13.9°C 74% 5.1 mph SSE8.2 kmh SSE 6.2 mph10.0 kmh 29.85 in1010.8 mb 0.00 in0.0 mm 0.00 in0.0 mm 0.00 in0.0 mm
11:43 PM 65.5°F18.6°C 56.7°F13.7°C 73% 4.0 mph S6.4 kmh S 6.8 mph10.9 kmh 29.85 in1010.8 mb 0.00 in0.0 mm 0.00 in0.0 mm 0.00 in0.0 mm
11:48 PM 64.9°F18.3°C 56.1°F13.4°C 73% 2.6 mph S4.2 kmh S 6.8 mph10.9 kmh 29.85 in1010.8 mb 0.00 in0.0 mm 0.00 in0.0 mm 0.00 in0.0 mm
11:53 PM 64.9°F18.3°C 56.1°F13.4°C 73% 3.6 mph S5.8 kmh S 5.0 mph8.0 kmh 29.83 in1010.2 mb 0.00 in0.0 mm 0.00 in0.0 mm 0.00 in0.0 mm
11:58 PM 64.9°F18.3°C 56.1°F13.4°C 73% 2.6 mph S4.2 kmh S 5.4 mph8.7 kmh 29.83 in1010.2 mb 0.00 in0.0 mm 0.00 in0.0 mm 0.00 in0.0 mm